sensor_id;sensor_type;location;lat;lon;timestamp;P1;durP1;ratioP1;P2;durP2;ratioP2
16153;SDS011;8182;55.648;13.208;2024-02-16T00:02:14;75.87;;;13.47;;
16153;SDS011;8182;55.648;13.208;2024-02-16T00:04:41;90.50;;;13.90;;
16153;SDS011;8182;55.648;13.208;2024-02-16T00:07:08;74.80;;;12.87;;
16153;SDS011;8182;55.648;13.208;2024-02-16T00:09:36;85.43;;;13.70;;
16153;SDS011;8182;55.648;13.208;2024-02-16T00:12:03;76.83;;;14.10;;
16153;SDS011;8182;55.648;13.208;2024-02-16T00:14:30;77.63;;;15.00;;
16153;SDS011;8182;55.648;13.208;2024-02-16T00:16:57;80.90;;;14.30;;
16153;SDS011;8182;55.648;13.208;2024-02-16T00:19:26;90.83;;;15.43;;
16153;SDS011;8182;55.648;13.208;2024-02-16T00:21:53;87.03;;;14.43;;
16153;SDS011;8182;55.648;13.208;2024-02-16T00:24:20;82.80;;;15.30;;
16153;SDS011;8182;55.648;13.208;2024-02-16T00:26:47;82.53;;;15.70;;
16153;SDS011;8182;55.648;13.208;2024-02-16T00:29:14;80.67;;;15.37;;
16153;SDS011;8182;55.648;13.208;2024-02-16T00:31:41;90.70;;;16.03;;
16153;SDS011;8182;55.648;13.208;2024-02-16T00:34:10;112.23;;;17.03;;
16153;SDS011;8182;55.648;13.208;2024-02-16T00:36:39;101.67;;;17.70;;
16153;SDS011;8182;55.648;13.208;2024-02-16T00:39:05;107.00;;;18.30;;
16153;SDS011;8182;55.648;13.208;2024-02-16T00:41:32;97.60;;;18.43;;
16153;SDS011;8182;55.648;13.208;2024-02-16T00:43:59;130.70;;;19.47;;
16153;SDS011;8182;55.648;13.208;2024-02-16T00:46:26;120.40;;;18.47;;
16153;SDS011;8182;55.648;13.208;2024-02-16T00:48:53;134.10;;;18.73;;
16153;SDS011;8182;55.648;13.208;2024-02-16T00:51:23;134.47;;;19.77;;
16153;SDS011;8182;55.648;13.208;2024-02-16T00:53:52;118.37;;;18.57;;
16153;SDS011;8182;55.648;13.208;2024-02-16T00:56:19;110.73;;;18.73;;
16153;SDS011;8182;55.648;13.208;2024-02-16T00:58:46;106.07;;;19.20;;
16153;SDS011;8182;55.648;13.208;2024-02-16T01:01:12;89.20;;;15.73;;
16153;SDS011;8182;55.648;13.208;2024-02-16T01:03:39;123.20;;;19.47;;
16153;SDS011;8182;55.648;13.208;2024-02-16T01:06:07;101.90;;;19.37;;
16153;SDS011;8182;55.648;13.208;2024-02-16T01:08:35;87.37;;;17.43;;
16153;SDS011;8182;55.648;13.208;2024-02-16T01:11:03;105.33;;;18.93;;
16153;SDS011;8182;55.648;13.208;2024-02-16T01:13:30;103.10;;;19.00;;
16153;SDS011;8182;55.648;13.208;2024-02-16T01:15:57;105.77;;;19.63;;
16153;SDS011;8182;55.648;13.208;2024-02-16T01:18:24;89.60;;;18.87;;
16153;SDS011;8182;55.648;13.208;2024-02-16T01:20:52;112.00;;;20.63;;
16153;SDS011;8182;55.648;13.208;2024-02-16T01:23:19;110.77;;;21.37;;
16153;SDS011;8182;55.648;13.208;2024-02-16T01:25:46;114.07;;;21.57;;
16153;SDS011;8182;55.648;13.208;2024-02-16T01:28:14;136.97;;;22.70;;
16153;SDS011;8182;55.648;13.208;2024-02-16T01:30:41;138.07;;;21.77;;
16153;SDS011;8182;55.648;13.208;2024-02-16T01:33:09;147.50;;;22.53;;
16153;SDS011;8182;55.648;13.208;2024-02-16T01:35:40;146.80;;;22.67;;
16153;SDS011;8182;55.648;13.208;2024-02-16T01:38:11;143.10;;;22.23;;
16153;SDS011;8182;55.648;13.208;2024-02-16T01:40:40;142.87;;;22.27;;
16153;SDS011;8182;55.648;13.208;2024-02-16T01:43:07;125.60;;;22.37;;
16153;SDS011;8182;55.648;13.208;2024-02-16T01:45:35;103.47;;;19.90;;
16153;SDS011;8182;55.648;13.208;2024-02-16T01:48:02;114.50;;;21.47;;
16153;SDS011;8182;55.648;13.208;2024-02-16T01:50:29;111.73;;;18.83;;
16153;SDS011;8182;55.648;13.208;2024-02-16T01:52:58;116.33;;;18.73;;
16153;SDS011;8182;55.648;13.208;2024-02-16T01:55:25;93.93;;;17.87;;
16153;SDS011;8182;55.648;13.208;2024-02-16T01:57:52;87.67;;;17.43;;
16153;SDS011;8182;55.648;13.208;2024-02-16T02:00:21;88.67;;;18.17;;
16153;SDS011;8182;55.648;13.208;2024-02-16T02:02:49;93.20;;;17.40;;
16153;SDS011;8182;55.648;13.208;2024-02-16T02:05:17;97.70;;;17.50;;
16153;SDS011;8182;55.648;13.208;2024-02-16T02:07:44;97.93;;;18.30;;
16153;SDS011;8182;55.648;13.208;2024-02-16T02:10:11;100.30;;;18.13;;
16153;SDS011;8182;55.648;13.208;2024-02-16T02:12:38;95.60;;;18.27;;
16153;SDS011;8182;55.648;13.208;2024-02-16T02:15:08;81.10;;;17.50;;
16153;SDS011;8182;55.648;13.208;2024-02-16T02:17:35;105.43;;;19.20;;
16153;SDS011;8182;55.648;13.208;2024-02-16T02:20:04;98.80;;;20.23;;
16153;SDS011;8182;55.648;13.208;2024-02-16T02:22:37;114.93;;;20.30;;
16153;SDS011;8182;55.648;13.208;2024-02-16T02:25:04;121.10;;;20.73;;
16153;SDS011;8182;55.648;13.208;2024-02-16T02:27:31;103.67;;;18.07;;
16153;SDS011;8182;55.648;13.208;2024-02-16T02:29:58;112.20;;;19.47;;
16153;SDS011;8182;55.648;13.208;2024-02-16T02:32:25;102.73;;;17.70;;
16153;SDS011;8182;55.648;13.208;2024-02-16T02:34:51;116.30;;;18.50;;
16153;SDS011;8182;55.648;13.208;2024-02-16T02:37:18;108.53;;;17.03;;
16153;SDS011;8182;55.648;13.208;2024-02-16T02:39:49;107.40;;;16.87;;
16153;SDS011;8182;55.648;13.208;2024-02-16T02:42:15;97.50;;;16.27;;
16153;SDS011;8182;55.648;13.208;2024-02-16T02:44:45;98.17;;;15.53;;
16153;SDS011;8182;55.648;13.208;2024-02-16T02:47:15;104.63;;;15.90;;
16153;SDS011;8182;55.648;13.208;2024-02-16T02:49:45;93.47;;;14.43;;
16153;SDS011;8182;55.648;13.208;2024-02-16T02:52:12;89.93;;;14.23;;
16153;SDS011;8182;55.648;13.208;2024-02-16T02:54:39;95.37;;;13.87;;
16153;SDS011;8182;55.648;13.208;2024-02-16T02:57:07;93.73;;;14.87;;
16153;SDS011;8182;55.648;13.208;2024-02-16T02:59:34;85.97;;;13.53;;
16153;SDS011;8182;55.648;13.208;2024-02-16T03:02:01;91.50;;;14.43;;
16153;SDS011;8182;55.648;13.208;2024-02-16T03:04:27;87.73;;;14.07;;
16153;SDS011;8182;55.648;13.208;2024-02-16T03:06:54;81.00;;;12.83;;
16153;SDS011;8182;55.648;13.208;2024-02-16T03:09:21;77.90;;;13.53;;
16153;SDS011;8182;55.648;13.208;2024-02-16T03:11:48;92.37;;;13.97;;
16153;SDS011;8182;55.648;13.208;2024-02-16T03:14:17;94.37;;;14.30;;
16153;SDS011;8182;55.648;13.208;2024-02-16T03:16:44;103.60;;;15.07;;
16153;SDS011;8182;55.648;13.208;2024-02-16T03:19:11;89.33;;;15.93;;
16153;SDS011;8182;55.648;13.208;2024-02-16T03:21:38;76.23;;;15.20;;
16153;SDS011;8182;55.648;13.208;2024-02-16T03:24:05;95.03;;;15.90;;
16153;SDS011;8182;55.648;13.208;2024-02-16T03:26:32;75.47;;;15.73;;
16153;SDS011;8182;55.648;13.208;2024-02-16T03:28:59;63.43;;;14.87;;
16153;SDS011;8182;55.648;13.208;2024-02-16T03:31:27;75.70;;;16.87;;
16153;SDS011;8182;55.648;13.208;2024-02-16T03:33:55;73.73;;;16.33;;
16153;SDS011;8182;55.648;13.208;2024-02-16T03:36:23;87.00;;;18.20;;
16153;SDS011;8182;55.648;13.208;2024-02-16T03:38:50;75.97;;;16.50;;
16153;SDS011;8182;55.648;13.208;2024-02-16T03:41:18;86.43;;;18.37;;
16153;SDS011;8182;55.648;13.208;2024-02-16T03:43:45;70.13;;;15.90;;
16153;SDS011;8182;55.648;13.208;2024-02-16T03:46:15;81.03;;;17.97;;
16153;SDS011;8182;55.648;13.208;2024-02-16T03:48:46;81.13;;;16.57;;
16153;SDS011;8182;55.648;13.208;2024-02-16T03:51:13;88.47;;;17.10;;
16153;SDS011;8182;55.648;13.208;2024-02-16T03:53:45;86.17;;;18.33;;
16153;SDS011;8182;55.648;13.208;2024-02-16T03:56:17;103.43;;;19.60;;
16153;SDS011;8182;55.648;13.208;2024-02-16T03:58:46;108.80;;;19.67;;
16153;SDS011;8182;55.648;13.208;2024-02-16T04:01:13;109.07;;;21.03;;
16153;SDS011;8182;55.648;13.208;2024-02-16T04:03:40;109.57;;;21.33;;
16153;SDS011;8182;55.648;13.208;2024-02-16T04:06:08;105.40;;;19.87;;
16153;SDS011;8182;55.648;13.208;2024-02-16T04:08:35;121.30;;;21.07;;
16153;SDS011;8182;55.648;13.208;2024-02-16T04:11:05;101.70;;;21.07;;
16153;SDS011;8182;55.648;13.208;2024-02-16T04:13:32;124.30;;;21.40;;
16153;SDS011;8182;55.648;13.208;2024-02-16T04:15:59;120.90;;;21.57;;
16153;SDS011;8182;55.648;13.208;2024-02-16T04:18:26;96.40;;;21.93;;
16153;SDS011;8182;55.648;13.208;2024-02-16T04:20:53;113.10;;;22.23;;
16153;SDS011;8182;55.648;13.208;2024-02-16T04:23:21;93.37;;;20.43;;
16153;SDS011;8182;55.648;13.208;2024-02-16T04:25:51;99.60;;;21.43;;
16153;SDS011;8182;55.648;13.208;2024-02-16T04:28:18;113.73;;;24.00;;
16153;SDS011;8182;55.648;13.208;2024-02-16T04:30:45;99.23;;;22.10;;
16153;SDS011;8182;55.648;13.208;2024-02-16T04:33:12;93.23;;;21.37;;
16153;SDS011;8182;55.648;13.208;2024-02-16T04:35:45;115.53;;;22.83;;
16153;SDS011;8182;55.648;13.208;2024-02-16T04:38:13;90.93;;;21.80;;
16153;SDS011;8182;55.648;13.208;2024-02-16T04:40:41;100.20;;;22.30;;
16153;SDS011;8182;55.648;13.208;2024-02-16T04:43:08;94.43;;;22.90;;
16153;SDS011;8182;55.648;13.208;2024-02-16T04:45:35;85.13;;;20.87;;
16153;SDS011;8182;55.648;13.208;2024-02-16T04:48:02;91.83;;;24.93;;
16153;SDS011;8182;55.648;13.208;2024-02-16T04:50:30;88.20;;;22.00;;
16153;SDS011;8182;55.648;13.208;2024-02-16T04:52:57;101.63;;;25.10;;
16153;SDS011;8182;55.648;13.208;2024-02-16T04:55:24;98.90;;;23.30;;
16153;SDS011;8182;55.648;13.208;2024-02-16T04:57:53;101.57;;;22.90;;
16153;SDS011;8182;55.648;13.208;2024-02-16T05:00:20;60.97;;;17.77;;
16153;SDS011;8182;55.648;13.208;2024-02-16T05:02:46;90.60;;;22.63;;
16153;SDS011;8182;55.648;13.208;2024-02-16T05:05:13;81.90;;;22.20;;
16153;SDS011;8182;55.648;13.208;2024-02-16T05:07:41;73.90;;;21.67;;
16153;SDS011;8182;55.648;13.208;2024-02-16T05:10:13;101.47;;;23.57;;
16153;SDS011;8182;55.648;13.208;2024-02-16T05:12:40;101.87;;;23.30;;
16153;SDS011;8182;55.648;13.208;2024-02-16T05:15:10;79.73;;;22.60;;
16153;SDS011;8182;55.648;13.208;2024-02-16T05:17:38;74.90;;;21.80;;
16153;SDS011;8182;55.648;13.208;2024-02-16T05:20:08;89.47;;;24.67;;
16153;SDS011;8182;55.648;13.208;2024-02-16T05:22:40;106.50;;;25.40;;
16153;SDS011;8182;55.648;13.208;2024-02-16T05:25:10;96.40;;;25.13;;
16153;SDS011;8182;55.648;13.208;2024-02-16T05:27:39;88.50;;;24.37;;
16153;SDS011;8182;55.648;13.208;2024-02-16T05:30:11;78.43;;;22.77;;
16153;SDS011;8182;55.648;13.208;2024-02-16T05:32:42;81.13;;;24.03;;
16153;SDS011;8182;55.648;13.208;2024-02-16T05:35:09;72.80;;;22.50;;
16153;SDS011;8182;55.648;13.208;2024-02-16T05:37:40;75.17;;;23.17;;
16153;SDS011;8182;55.648;13.208;2024-02-16T05:40:09;77.10;;;23.17;;
16153;SDS011;8182;55.648;13.208;2024-02-16T05:42:46;89.57;;;25.77;;
16153;SDS011;8182;55.648;13.208;2024-02-16T05:45:15;56.57;;;19.47;;
16153;SDS011;8182;55.648;13.208;2024-02-16T05:47:44;75.67;;;24.03;;
16153;SDS011;8182;55.648;13.208;2024-02-16T05:50:12;70.03;;;23.40;;
16153;SDS011;8182;55.648;13.208;2024-02-16T05:52:42;76.27;;;24.67;;
16153;SDS011;8182;55.648;13.208;2024-02-16T05:55:10;86.50;;;22.73;;
16153;SDS011;8182;55.648;13.208;2024-02-16T05:57:38;86.07;;;24.27;;
16153;SDS011;8182;55.648;13.208;2024-02-16T06:00:06;86.97;;;23.17;;
16153;SDS011;8182;55.648;13.208;2024-02-16T06:02:35;48.17;;;14.83;;
16153;SDS011;8182;55.648;13.208;2024-02-16T06:07:51;71.27;;;22.47;;
16153;SDS011;8182;55.648;13.208;2024-02-16T06:10:17;88.43;;;24.23;;
16153;SDS011;8182;55.648;13.208;2024-02-16T06:12:46;87.80;;;23.07;;
16153;SDS011;8182;55.648;13.208;2024-02-16T06:15:12;76.40;;;22.70;;
16153;SDS011;8182;55.648;13.208;2024-02-16T06:17:41;66.67;;;20.07;;
16153;SDS011;8182;55.648;13.208;2024-02-16T06:20:08;68.23;;;21.27;;
16153;SDS011;8182;55.648;13.208;2024-02-16T06:22:36;84.00;;;23.90;;
16153;SDS011;8182;55.648;13.208;2024-02-16T06:25:03;81.73;;;23.80;;
16153;SDS011;8182;55.648;13.208;2024-02-16T06:27:30;100.23;;;24.10;;
16153;SDS011;8182;55.648;13.208;2024-02-16T06:29:57;89.20;;;25.47;;
16153;SDS011;8182;55.648;13.208;2024-02-16T06:32:24;75.77;;;23.20;;
16153;SDS011;8182;55.648;13.208;2024-02-16T06:34:53;90.27;;;24.97;;
16153;SDS011;8182;55.648;13.208;2024-02-16T06:37:20;71.77;;;23.27;;
16153;SDS011;8182;55.648;13.208;2024-02-16T06:39:46;73.27;;;24.27;;
16153;SDS011;8182;55.648;13.208;2024-02-16T06:42:13;71.60;;;22.63;;
16153;SDS011;8182;55.648;13.208;2024-02-16T06:44:40;70.67;;;23.50;;
16153;SDS011;8182;55.648;13.208;2024-02-16T06:47:09;60.40;;;20.73;;
16153;SDS011;8182;55.648;13.208;2024-02-16T06:49:36;84.27;;;22.87;;
16153;SDS011;8182;55.648;13.208;2024-02-16T06:52:05;78.17;;;22.80;;
16153;SDS011;8182;55.648;13.208;2024-02-16T06:54:32;83.43;;;26.17;;
16153;SDS011;8182;55.648;13.208;2024-02-16T06:56:59;70.10;;;23.50;;
16153;SDS011;8182;55.648;13.208;2024-02-16T06:59:26;60.40;;;20.70;;
16153;SDS011;8182;55.648;13.208;2024-02-16T07:01:53;59.77;;;20.90;;
16153;SDS011;8182;55.648;13.208;2024-02-16T07:04:20;52.93;;;17.70;;
16153;SDS011;8182;55.648;13.208;2024-02-16T07:06:46;41.73;;;16.80;;
16153;SDS011;8182;55.648;13.208;2024-02-16T07:09:15;46.00;;;17.03;;
16153;SDS011;8182;55.648;13.208;2024-02-16T07:11:42;66.77;;;21.13;;
16153;SDS011;8182;55.648;13.208;2024-02-16T07:14:11;61.47;;;21.13;;
16153;SDS011;8182;55.648;13.208;2024-02-16T07:16:39;55.73;;;20.77;;
16153;SDS011;8182;55.648;13.208;2024-02-16T07:19:06;66.63;;;22.13;;
16153;SDS011;8182;55.648;13.208;2024-02-16T07:21:32;52.40;;;20.63;;
16153;SDS011;8182;55.648;13.208;2024-02-16T07:23:59;46.83;;;17.40;;
16153;SDS011;8182;55.648;13.208;2024-02-16T07:26:28;57.87;;;20.97;;
16153;SDS011;8182;55.648;13.208;2024-02-16T07:28:55;62.47;;;21.57;;
16153;SDS011;8182;55.648;13.208;2024-02-16T07:31:22;66.90;;;21.87;;
16153;SDS011;8182;55.648;13.208;2024-02-16T07:33:49;70.50;;;22.47;;
16153;SDS011;8182;55.648;13.208;2024-02-16T07:36:16;60.33;;;20.87;;
16153;SDS011;8182;55.648;13.208;2024-02-16T07:38:44;61.93;;;22.33;;
16153;SDS011;8182;55.648;13.208;2024-02-16T07:41:13;66.77;;;21.53;;
16153;SDS011;8182;55.648;13.208;2024-02-16T07:43:41;71.23;;;22.23;;
16153;SDS011;8182;55.648;13.208;2024-02-16T07:46:09;49.00;;;17.73;;
16153;SDS011;8182;55.648;13.208;2024-02-16T07:48:35;53.97;;;19.53;;
16153;SDS011;8182;55.648;13.208;2024-02-16T07:51:02;65.53;;;21.67;;
16153;SDS011;8182;55.648;13.208;2024-02-16T07:53:30;66.53;;;22.23;;
16153;SDS011;8182;55.648;13.208;2024-02-16T07:55:58;65.63;;;22.37;;
16153;SDS011;8182;55.648;13.208;2024-02-16T07:58:25;53.17;;;19.67;;
16153;SDS011;8182;55.648;13.208;2024-02-16T08:00:53;39.53;;;15.43;;
16153;SDS011;8182;55.648;13.208;2024-02-16T08:03:20;50.00;;;19.00;;
16153;SDS011;8182;55.648;13.208;2024-02-16T08:05:47;49.67;;;20.37;;
16153;SDS011;8182;55.648;13.208;2024-02-16T08:08:15;57.03;;;20.53;;
16153;SDS011;8182;55.648;13.208;2024-02-16T08:10:42;53.17;;;21.43;;
16153;SDS011;8182;55.648;13.208;2024-02-16T08:13:09;44.33;;;17.93;;
16153;SDS011;8182;55.648;13.208;2024-02-16T08:15:36;56.93;;;21.37;;
16153;SDS011;8182;55.648;13.208;2024-02-16T08:18:05;56.63;;;21.07;;
16153;SDS011;8182;55.648;13.208;2024-02-16T08:20:32;58.93;;;21.23;;
16153;SDS011;8182;55.648;13.208;2024-02-16T08:23:00;42.73;;;18.40;;
16153;SDS011;8182;55.648;13.208;2024-02-16T08:25:27;50.40;;;21.47;;
16153;SDS011;8182;55.648;13.208;2024-02-16T08:27:55;54.07;;;23.17;;
16153;SDS011;8182;55.648;13.208;2024-02-16T08:30:22;48.43;;;19.20;;
16153;SDS011;8182;55.648;13.208;2024-02-16T08:32:50;53.63;;;21.33;;
16153;SDS011;8182;55.648;13.208;2024-02-16T08:35:19;50.00;;;20.13;;
16153;SDS011;8182;55.648;13.208;2024-02-16T08:37:46;48.63;;;20.33;;
16153;SDS011;8182;55.648;13.208;2024-02-16T08:40:13;46.43;;;20.00;;
16153;SDS011;8182;55.648;13.208;2024-02-16T08:42:43;40.87;;;18.50;;
16153;SDS011;8182;55.648;13.208;2024-02-16T08:45:10;40.83;;;18.90;;
16153;SDS011;8182;55.648;13.208;2024-02-16T08:47:38;35.37;;;16.73;;
16153;SDS011;8182;55.648;13.208;2024-02-16T08:50:05;35.23;;;17.47;;
16153;SDS011;8182;55.648;13.208;2024-02-16T08:52:34;36.97;;;18.90;;
16153;SDS011;8182;55.648;13.208;2024-02-16T08:55:01;37.40;;;17.57;;
16153;SDS011;8182;55.648;13.208;2024-02-16T08:57:31;36.70;;;17.17;;
16153;SDS011;8182;55.648;13.208;2024-02-16T08:59:58;31.43;;;17.30;;
16153;SDS011;8182;55.648;13.208;2024-02-16T09:02:25;37.63;;;17.07;;
16153;SDS011;8182;55.648;13.208;2024-02-16T09:04:52;34.67;;;18.27;;
16153;SDS011;8182;55.648;13.208;2024-02-16T09:07:19;35.17;;;17.53;;
16153;SDS011;8182;55.648;13.208;2024-02-16T09:09:49;30.80;;;17.43;;
16153;SDS011;8182;55.648;13.208;2024-02-16T09:12:16;27.23;;;15.57;;
16153;SDS011;8182;55.648;13.208;2024-02-16T09:14:43;35.80;;;19.03;;
16153;SDS011;8182;55.648;13.208;2024-02-16T09:17:09;31.47;;;17.27;;
16153;SDS011;8182;55.648;13.208;2024-02-16T09:19:38;32.27;;;16.10;;
16153;SDS011;8182;55.648;13.208;2024-02-16T09:22:06;32.50;;;17.67;;
16153;SDS011;8182;55.648;13.208;2024-02-16T09:24:33;31.73;;;17.80;;
16153;SDS011;8182;55.648;13.208;2024-02-16T09:27:05;26.80;;;14.93;;
16153;SDS011;8182;55.648;13.208;2024-02-16T09:29:35;30.43;;;17.77;;
16153;SDS011;8182;55.648;13.208;2024-02-16T09:32:02;26.83;;;15.47;;
16153;SDS011;8182;55.648;13.208;2024-02-16T09:34:29;25.67;;;15.97;;
16153;SDS011;8182;55.648;13.208;2024-02-16T09:36:55;25.23;;;15.93;;
16153;SDS011;8182;55.648;13.208;2024-02-16T09:39:22;25.07;;;15.87;;
16153;SDS011;8182;55.648;13.208;2024-02-16T09:41:52;30.50;;;16.83;;
16153;SDS011;8182;55.648;13.208;2024-02-16T09:44:21;29.10;;;16.40;;
16153;SDS011;8182;55.648;13.208;2024-02-16T09:46:49;26.07;;;15.87;;
16153;SDS011;8182;55.648;13.208;2024-02-16T09:49:18;21.63;;;15.13;;
16153;SDS011;8182;55.648;13.208;2024-02-16T09:51:45;23.73;;;15.20;;
16153;SDS011;8182;55.648;13.208;2024-02-16T09:54:12;21.63;;;14.23;;
16153;SDS011;8182;55.648;13.208;2024-02-16T09:56:39;23.03;;;14.70;;
16153;SDS011;8182;55.648;13.208;2024-02-16T09:59:07;20.00;;;13.97;;
16153;SDS011;8182;55.648;13.208;2024-02-16T10:01:35;18.63;;;14.60;;
16153;SDS011;8182;55.648;13.208;2024-02-16T10:04:05;19.90;;;13.73;;
16153;SDS011;8182;55.648;13.208;2024-02-16T10:06:33;20.93;;;13.93;;
16153;SDS011;8182;55.648;13.208;2024-02-16T10:09:11;18.97;;;13.63;;
16153;SDS011;8182;55.648;13.208;2024-02-16T10:11:48;20.17;;;14.83;;
16153;SDS011;8182;55.648;13.208;2024-02-16T10:14:15;15.87;;;12.70;;
16153;SDS011;8182;55.648;13.208;2024-02-16T10:16:48;12.93;;;11.50;;
16153;SDS011;8182;55.648;13.208;2024-02-16T10:19:25;13.37;;;11.23;;
16153;SDS011;8182;55.648;13.208;2024-02-16T10:21:51;11.27;;;10.07;;
16153;SDS011;8182;55.648;13.208;2024-02-16T10:24:21;12.03;;;9.53;;
16153;SDS011;8182;55.648;13.208;2024-02-16T10:26:48;12.97;;;9.43;;
16153;SDS011;8182;55.648;13.208;2024-02-16T10:29:17;11.97;;;8.93;;
16153;SDS011;8182;55.648;13.208;2024-02-16T10:31:46;11.30;;;8.63;;
16153;SDS011;8182;55.648;13.208;2024-02-16T10:34:14;10.80;;;8.20;;
16153;SDS011;8182;55.648;13.208;2024-02-16T10:36:41;14.83;;;8.70;;
16153;SDS011;8182;55.648;13.208;2024-02-16T10:39:12;10.73;;;8.10;;
16153;SDS011;8182;55.648;13.208;2024-02-16T10:41:44;10.70;;;8.80;;
16153;SDS011;8182;55.648;13.208;2024-02-16T10:44:11;13.93;;;8.80;;
16153;SDS011;8182;55.648;13.208;2024-02-16T10:46:41;9.37;;;7.93;;
16153;SDS011;8182;55.648;13.208;2024-02-16T10:49:10;9.93;;;8.43;;
16153;SDS011;8182;55.648;13.208;2024-02-16T10:51:38;10.97;;;8.50;;
16153;SDS011;8182;55.648;13.208;2024-02-16T10:54:10;9.43;;;8.30;;
16153;SDS011;8182;55.648;13.208;2024-02-16T10:56:41;10.60;;;8.27;;
16153;SDS011;8182;55.648;13.208;2024-02-16T10:59:08;10.80;;;8.13;;
16153;SDS011;8182;55.648;13.208;2024-02-16T11:01:41;9.80;;;8.20;;
16153;SDS011;8182;55.648;13.208;2024-02-16T11:04:13;9.40;;;7.60;;
16153;SDS011;8182;55.648;13.208;2024-02-16T11:06:48;11.87;;;7.77;;
16153;SDS011;8182;55.648;13.208;2024-02-16T11:09:27;9.43;;;7.70;;
16153;SDS011;8182;55.648;13.208;2024-02-16T11:11:54;9.40;;;8.10;;
16153;SDS011;8182;55.648;13.208;2024-02-16T11:14:36;9.43;;;7.43;;
16153;SDS011;8182;55.648;13.208;2024-02-16T11:17:07;8.93;;;6.90;;
16153;SDS011;8182;55.648;13.208;2024-02-16T11:19:36;9.73;;;6.77;;
16153;SDS011;8182;55.648;13.208;2024-02-16T11:22:03;9.23;;;8.17;;
16153;SDS011;8182;55.648;13.208;2024-02-16T11:24:33;11.07;;;8.27;;
16153;SDS011;8182;55.648;13.208;2024-02-16T11:27:02;9.27;;;7.63;;
16153;SDS011;8182;55.648;13.208;2024-02-16T11:29:32;9.43;;;7.60;;
16153;SDS011;8182;55.648;13.208;2024-02-16T11:32:00;9.90;;;8.10;;
16153;SDS011;8182;55.648;13.208;2024-02-16T11:34:28;9.33;;;7.70;;
16153;SDS011;8182;55.648;13.208;2024-02-16T11:36:57;9.17;;;7.67;;
16153;SDS011;8182;55.648;13.208;2024-02-16T11:39:24;9.63;;;7.10;;
16153;SDS011;8182;55.648;13.208;2024-02-16T11:42:01;8.73;;;7.53;;
16153;SDS011;8182;55.648;13.208;2024-02-16T11:44:29;9.83;;;7.80;;
16153;SDS011;8182;55.648;13.208;2024-02-16T11:46:57;8.70;;;7.80;;
16153;SDS011;8182;55.648;13.208;2024-02-16T11:49:24;9.47;;;7.67;;
16153;SDS011;8182;55.648;13.208;2024-02-16T11:51:51;10.97;;;7.77;;
16153;SDS011;8182;55.648;13.208;2024-02-16T11:54:19;8.77;;;7.50;;
16153;SDS011;8182;55.648;13.208;2024-02-16T11:56:46;8.97;;;8.07;;
16153;SDS011;8182;55.648;13.208;2024-02-16T11:59:16;11.20;;;7.70;;
16153;SDS011;8182;55.648;13.208;2024-02-16T12:01:50;10.47;;;8.30;;
16153;SDS011;8182;55.648;13.208;2024-02-16T12:04:21;11.30;;;7.27;;
16153;SDS011;8182;55.648;13.208;2024-02-16T12:06:50;9.70;;;7.30;;
16153;SDS011;8182;55.648;13.208;2024-02-16T12:09:19;10.10;;;7.47;;
16153;SDS011;8182;55.648;13.208;2024-02-16T12:11:47;8.70;;;7.30;;
16153;SDS011;8182;55.648;13.208;2024-02-16T12:14:15;10.90;;;7.53;;
16153;SDS011;8182;55.648;13.208;2024-02-16T12:16:42;10.13;;;7.27;;
16153;SDS011;8182;55.648;13.208;2024-02-16T12:19:13;11.50;;;7.60;;
16153;SDS011;8182;55.648;13.208;2024-02-16T12:21:39;10.07;;;6.97;;
16153;SDS011;8182;55.648;13.208;2024-02-16T12:24:06;8.40;;;6.90;;
16153;SDS011;8182;55.648;13.208;2024-02-16T12:26:35;8.63;;;7.07;;
16153;SDS011;8182;55.648;13.208;2024-02-16T12:29:02;8.80;;;7.30;;
16153;SDS011;8182;55.648;13.208;2024-02-16T12:31:29;12.10;;;7.73;;
16153;SDS011;8182;55.648;13.208;2024-02-16T12:33:56;8.20;;;6.90;;
16153;SDS011;8182;55.648;13.208;2024-02-16T12:36:23;10.47;;;7.70;;
16153;SDS011;8182;55.648;13.208;2024-02-16T12:38:50;9.67;;;7.60;;
16153;SDS011;8182;55.648;13.208;2024-02-16T12:41:17;9.73;;;7.57;;
16153;SDS011;8182;55.648;13.208;2024-02-16T12:43:49;12.10;;;7.07;;
16153;SDS011;8182;55.648;13.208;2024-02-16T12:46:16;9.10;;;6.83;;
16153;SDS011;8182;55.648;13.208;2024-02-16T12:48:43;9.27;;;7.30;;
16153;SDS011;8182;55.648;13.208;2024-02-16T12:51:12;14.90;;;7.30;;
16153;SDS011;8182;55.648;13.208;2024-02-16T12:53:40;8.23;;;7.03;;
16153;SDS011;8182;55.648;13.208;2024-02-16T12:56:09;10.20;;;8.03;;
16153;SDS011;8182;55.648;13.208;2024-02-16T12:58:37;9.87;;;6.70;;
16153;SDS011;8182;55.648;13.208;2024-02-16T13:01:06;12.20;;;7.40;;
16153;SDS011;8182;55.648;13.208;2024-02-16T13:03:33;8.80;;;7.10;;
16153;SDS011;8182;55.648;13.208;2024-02-16T13:06:00;10.13;;;7.37;;
16153;SDS011;8182;55.648;13.208;2024-02-16T13:08:27;9.13;;;7.43;;
16153;SDS011;8182;55.648;13.208;2024-02-16T13:10:55;10.47;;;7.57;;
16153;SDS011;8182;55.648;13.208;2024-02-16T13:13:21;10.37;;;8.07;;
16153;SDS011;8182;55.648;13.208;2024-02-16T13:15:49;11.90;;;8.00;;
16153;SDS011;8182;55.648;13.208;2024-02-16T13:18:17;10.27;;;7.80;;
16153;SDS011;8182;55.648;13.208;2024-02-16T13:20:44;8.90;;;7.23;;
16153;SDS011;8182;55.648;13.208;2024-02-16T13:23:15;10.97;;;6.83;;
16153;SDS011;8182;55.648;13.208;2024-02-16T13:25:41;9.53;;;6.90;;
16153;SDS011;8182;55.648;13.208;2024-02-16T13:28:11;9.17;;;7.10;;
16153;SDS011;8182;55.648;13.208;2024-02-16T13:30:41;10.60;;;6.90;;
16153;SDS011;8182;55.648;13.208;2024-02-16T13:33:11;9.07;;;7.00;;
16153;SDS011;8182;55.648;13.208;2024-02-16T13:35:44;12.03;;;8.00;;
16153;SDS011;8182;55.648;13.208;2024-02-16T13:38:11;9.90;;;6.80;;
16153;SDS011;8182;55.648;13.208;2024-02-16T13:40:41;8.53;;;7.63;;
16153;SDS011;8182;55.648;13.208;2024-02-16T13:43:11;10.57;;;7.77;;
16153;SDS011;8182;55.648;13.208;2024-02-16T13:45:48;8.97;;;7.20;;
16153;SDS011;8182;55.648;13.208;2024-02-16T13:48:16;9.30;;;7.03;;
16153;SDS011;8182;55.648;13.208;2024-02-16T13:50:45;10.63;;;6.90;;
16153;SDS011;8182;55.648;13.208;2024-02-16T13:53:13;7.50;;;6.67;;
16153;SDS011;8182;55.648;13.208;2024-02-16T13:55:40;6.97;;;5.93;;
16153;SDS011;8182;55.648;13.208;2024-02-16T13:58:08;8.23;;;6.63;;
16153;SDS011;8182;55.648;13.208;2024-02-16T14:00:36;10.13;;;6.90;;
16153;SDS011;8182;55.648;13.208;2024-02-16T14:03:06;9.17;;;7.17;;
16153;SDS011;8182;55.648;13.208;2024-02-16T14:05:35;7.73;;;6.60;;
16153;SDS011;8182;55.648;13.208;2024-02-16T14:08:03;8.30;;;6.50;;
16153;SDS011;8182;55.648;13.208;2024-02-16T14:10:31;8.43;;;6.90;;
16153;SDS011;8182;55.648;13.208;2024-02-16T14:12:58;9.93;;;6.60;;
16153;SDS011;8182;55.648;13.208;2024-02-16T14:15:25;10.00;;;7.23;;
16153;SDS011;8182;55.648;13.208;2024-02-16T14:17:52;10.43;;;7.20;;
16153;SDS011;8182;55.648;13.208;2024-02-16T14:20:18;8.43;;;7.00;;
16153;SDS011;8182;55.648;13.208;2024-02-16T14:22:46;7.87;;;6.50;;
16153;SDS011;8182;55.648;13.208;2024-02-16T14:25:15;9.27;;;6.67;;
16153;SDS011;8182;55.648;13.208;2024-02-16T14:27:43;9.33;;;6.63;;
16153;SDS011;8182;55.648;13.208;2024-02-16T14:30:11;10.80;;;6.60;;
16153;SDS011;8182;55.648;13.208;2024-02-16T14:32:41;7.90;;;6.77;;
16153;SDS011;8182;55.648;13.208;2024-02-16T14:35:12;9.90;;;6.93;;